createdAt,value
2018-06-27T00:05:01.430Z,99.99
2018-06-27T00:15:01.408Z,99.99
2018-06-27T00:25:01.448Z,99.99
2018-06-27T00:35:01.457Z,99.99
2018-06-27T00:45:01.465Z,99.99
2018-06-27T00:55:01.372Z,99.99
2018-06-27T01:05:01.448Z,99.99
2018-06-27T01:15:01.360Z,99.99
2018-06-27T01:25:01.462Z,99.99
2018-06-27T01:35:01.440Z,99.99
2018-06-27T01:45:01.376Z,99.99
2018-06-27T01:55:01.434Z,99.99
2018-06-27T02:05:01.391Z,99.99
2018-06-27T02:15:01.468Z,99.99
2018-06-27T02:25:01.439Z,99.99
2018-06-27T02:35:01.354Z,99.99
2018-06-27T02:45:01.446Z,99.99
2018-06-27T02:55:01.425Z,99.99
2018-06-27T03:05:01.508Z,99.99
2018-06-27T03:15:01.428Z,99.99
2018-06-27T03:25:01.414Z,99.99
2018-06-27T03:35:01.471Z,99.99
2018-06-27T03:45:01.435Z,99.99
2018-06-27T03:55:01.477Z,99.99
2018-06-27T04:05:05.633Z,99.99
2018-06-27T04:15:01.519Z,99.99
2018-06-27T04:25:01.463Z,99.99
2018-06-27T04:35:01.532Z,99.99
2018-06-27T04:45:01.490Z,99.99
2018-06-27T04:55:01.570Z,99.99
2018-06-27T05:05:01.523Z,99.99
2018-06-27T05:15:01.599Z,99.99
2018-06-27T05:25:01.518Z,99.99
2018-06-27T05:35:01.641Z,99.99
2018-06-27T05:45:01.584Z,99.99
2018-06-27T05:55:01.650Z,99.99
2018-06-27T06:05:01.571Z,97.04
2018-06-27T06:15:01.654Z,79.33
2018-06-27T06:25:01.682Z,71.72
2018-06-27T06:35:01.594Z,67.08
2018-06-27T06:45:01.655Z,61.02
2018-06-27T06:55:01.582Z,59.07
2018-06-27T07:05:01.694Z,56.82
2018-06-27T07:15:01.680Z,55.66
2018-06-27T07:25:01.609Z,51.78
2018-06-27T07:35:01.696Z,50.39
2018-06-27T07:45:01.626Z,48.41
2018-06-27T07:55:01.560Z,53.55
2018-06-27T08:05:01.631Z,53.49
2018-06-27T08:15:01.567Z,48.65
2018-06-27T08:25:01.654Z,45.43
2018-06-27T08:35:01.618Z,47.02
2018-06-27T08:45:01.684Z,44.4
2018-06-27T08:55:01.630Z,44.07
2018-06-27T09:05:01.620Z,44.43
2018-06-27T09:15:01.706Z,45.31
2018-06-27T09:25:01.629Z,58.53
2018-06-27T09:35:01.897Z,66.63
2018-06-27T09:45:01.665Z,70.68
2018-06-27T09:55:01.626Z,73.74
2018-06-27T10:05:01.736Z,76.29
2018-06-27T10:15:01.644Z,75.96
2018-06-27T10:25:01.709Z,78.58
2018-06-27T10:35:01.647Z,77.8
2018-06-27T10:45:01.637Z,74.41
2018-06-27T10:55:01.692Z,72.99
2018-06-27T11:05:01.700Z,71.73
2018-06-27T11:15:01.689Z,70.37
2018-06-27T11:25:01.737Z,67.6
2018-06-27T11:35:01.659Z,69.54
2018-06-27T11:45:01.824Z,66.47
2018-06-27T11:55:01.653Z,65.11
2018-06-27T12:05:01.623Z,67.31
2018-06-27T12:15:01.708Z,67.21
2018-06-27T12:25:01.828Z,61.17
2018-06-27T12:35:01.966Z,64.95
2018-06-27T12:45:01.676Z,67.18
2018-06-27T12:55:01.879Z,65.92
2018-06-27T13:05:01.725Z,64.78
2018-06-27T13:15:01.690Z,63.26
2018-06-27T13:25:01.745Z,59.12
2018-06-27T13:35:01.694Z,61.58
2018-06-27T13:45:01.702Z,60.97
2018-06-27T13:55:01.773Z,61.65
2018-06-27T14:05:02.153Z,60.61
2018-06-27T14:15:01.805Z,57.32
2018-06-27T14:25:03.757Z,57.15
2018-06-27T14:35:03.047Z,57.67
2018-06-27T14:45:01.765Z,57.79
2018-06-27T14:55:01.759Z,57.57
2018-06-27T15:05:01.765Z,59.54
2018-06-27T15:15:01.936Z,55.5
2018-06-27T15:25:02.013Z,56.72
2018-06-27T15:55:13.006Z,55.89
2018-06-27T16:05:12.795Z,53.66
2018-06-27T16:25:01.720Z,53.24
2018-06-27T16:35:13.274Z,52.95
2018-06-27T16:45:01.793Z,53.31
2018-06-27T16:55:01.832Z,55.26
2018-06-27T17:05:02.544Z,56.39
2018-06-27T17:15:01.816Z,53.02
2018-06-27T17:25:02.269Z,52.3
2018-06-27T17:35:02.192Z,53.12
2018-06-27T17:45:01.878Z,55.52
2018-06-27T17:55:01.933Z,57.2
2018-06-27T18:05:01.824Z,58.37
2018-06-27T18:15:01.899Z,56.88
2018-06-27T18:25:01.924Z,60.08
2018-06-27T18:35:01.781Z,62.56
2018-06-27T18:45:01.841Z,67.17
2018-06-27T18:55:07.005Z,69.9
2018-06-27T19:05:01.862Z,72.77
2018-06-27T19:15:02.262Z,74.52
2018-06-27T19:25:01.836Z,76.13
2018-06-27T19:35:02.407Z,79.13
2018-06-27T19:45:01.930Z,80.25
2018-06-27T19:55:02.194Z,83
2018-06-27T20:05:01.908Z,88.34
2018-06-27T20:15:01.958Z,88.01
2018-06-27T20:25:02.140Z,89.98
2018-06-27T20:35:03.827Z,91.71
2018-06-27T20:45:02.130Z,95.79
2018-06-27T20:55:04.312Z,96.7
2018-06-27T21:05:02.138Z,96.85
2018-06-27T21:15:01.896Z,99.24
2018-06-27T21:25:05.151Z,99.99
2018-06-27T21:35:01.868Z,99.99
2018-06-27T21:45:01.797Z,99.99
2018-06-27T21:55:02.063Z,99.99
2018-06-27T22:05:02.225Z,99.99
2018-06-27T22:15:01.817Z,99.99
2018-06-27T22:25:01.849Z,99.99
2018-06-27T22:35:01.893Z,99.99
2018-06-27T22:45:01.807Z,99.99
2018-06-27T22:55:01.849Z,99.99
2018-06-27T23:05:01.763Z,99.99
2018-06-27T23:15:01.796Z,99.99
2018-06-27T23:25:01.847Z,99.99
2018-06-27T23:35:01.785Z,99.99
2018-06-27T23:45:02.165Z,99.99
2018-06-27T23:55:01.771Z,99.99
